sensor_id;sensor_type;location;lat;lon;timestamp;temperature;humidity
52435;DHT22;38354;52.892;6.148;2023-11-21T04:02:24;10.00;99.90
52435;DHT22;38354;52.892;6.148;2023-11-21T04:04:51;10.00;99.90
52435;DHT22;38354;52.892;6.148;2023-11-21T04:07:17;10.00;99.90
52435;DHT22;38354;52.892;6.148;2023-11-21T04:09:43;10.00;99.90
52435;DHT22;38354;52.892;6.148;2023-11-21T04:12:09;10.00;99.90
52435;DHT22;38354;52.892;6.148;2023-11-21T04:14:35;10.00;99.90
52435;DHT22;38354;52.892;6.148;2023-11-21T04:17:00;10.00;99.90
52435;DHT22;38354;52.892;6.148;2023-11-21T04:19:26;10.00;99.90
52435;DHT22;38354;52.892;6.148;2023-11-21T04:21:52;10.00;99.90
52435;DHT22;38354;52.892;6.148;2023-11-21T04:24:17;10.00;99.90
52435;DHT22;38354;52.892;6.148;2023-11-21T04:26:46;10.00;99.90
52435;DHT22;38354;52.892;6.148;2023-11-21T04:29:12;10.00;99.90
52435;DHT22;38354;52.892;6.148;2023-11-21T04:31:37;10.00;99.90
52435;DHT22;38354;52.892;6.148;2023-11-21T04:34:03;10.00;99.90
52435;DHT22;38354;52.892;6.148;2023-11-21T04:36:30;10.00;99.90
52435;DHT22;38354;52.892;6.148;2023-11-21T04:38:56;10.00;99.90
52435;DHT22;38354;52.892;6.148;2023-11-21T04:41:22;10.00;99.90
52435;DHT22;38354;52.892;6.148;2023-11-21T04:43:48;10.00;99.90
52435;DHT22;38354;52.892;6.148;2023-11-21T04:46:14;10.00;99.90
52435;DHT22;38354;52.892;6.148;2023-11-21T04:48:40;10.00;99.90
52435;DHT22;38354;52.892;6.148;2023-11-21T04:51:05;10.00;99.90
52435;DHT22;38354;52.892;6.148;2023-11-21T04:53:32;10.00;99.90
52435;DHT22;38354;52.892;6.148;2023-11-21T04:55:57;10.00;99.90
52435;DHT22;38354;52.892;6.148;2023-11-21T04:58:24;10.00;99.90
52435;DHT22;38354;52.892;6.148;2023-11-21T05:00:50;9.90;99.90
52435;DHT22;38354;52.892;6.148;2023-11-21T05:03:15;10.00;99.90
52435;DHT22;38354;52.892;6.148;2023-11-21T05:05:41;10.00;99.90
52435;DHT22;38354;52.892;6.148;2023-11-21T05:08:06;10.00;99.90
52435;DHT22;38354;52.892;6.148;2023-11-21T05:10:33;10.00;99.90
52435;DHT22;38354;52.892;6.148;2023-11-21T05:12:59;10.00;99.90
52435;DHT22;38354;52.892;6.148;2023-11-21T05:15:25;9.90;99.90
52435;DHT22;38354;52.892;6.148;2023-11-21T05:17:52;10.00;99.90
52435;DHT22;38354;52.892;6.148;2023-11-21T05:20:19;9.90;99.90
52435;DHT22;38354;52.892;6.148;2023-11-21T05:22:47;10.00;99.90
52435;DHT22;38354;52.892;6.148;2023-11-21T05:25:14;10.00;99.90
52435;DHT22;38354;52.892;6.148;2023-11-21T05:27:39;10.00;99.90
52435;DHT22;38354;52.892;6.148;2023-11-21T05:30:06;10.00;99.90
52435;DHT22;38354;52.892;6.148;2023-11-21T05:32:32;10.00;99.90
52435;DHT22;38354;52.892;6.148;2023-11-21T05:34:58;10.00;99.90
52435;DHT22;38354;52.892;6.148;2023-11-21T05:37:24;10.00;99.90
52435;DHT22;38354;52.892;6.148;2023-11-21T05:39:53;10.00;99.90
52435;DHT22;38354;52.892;6.148;2023-11-21T05:42:19;10.00;99.90
52435;DHT22;38354;52.892;6.148;2023-11-21T05:44:46;10.00;99.90
52435;DHT22;38354;52.892;6.148;2023-11-21T05:47:12;10.00;99.90
52435;DHT22;38354;52.892;6.148;2023-11-21T05:49:39;10.00;99.90
52435;DHT22;38354;52.892;6.148;2023-11-21T05:52:04;10.00;99.90
52435;DHT22;38354;52.892;6.148;2023-11-21T05:54:31;10.00;99.90
52435;DHT22;38354;52.892;6.148;2023-11-21T05:56:56;10.00;99.90
52435;DHT22;38354;52.892;6.148;2023-11-21T05:59:23;10.00;99.90
52435;DHT22;38354;52.892;6.148;2023-11-21T06:01:48;10.00;99.90
52435;DHT22;38354;52.892;6.148;2023-11-21T06:04:14;10.00;99.90
52435;DHT22;38354;52.892;6.148;2023-11-21T06:06:40;10.00;99.90
52435;DHT22;38354;52.892;6.148;2023-11-21T06:09:05;10.00;99.90
52435;DHT22;38354;52.892;6.148;2023-11-21T06:11:34;10.00;99.90
52435;DHT22;38354;52.892;6.148;2023-11-21T06:14:00;10.00;99.90
52435;DHT22;38354;52.892;6.148;2023-11-21T06:16:25;10.00;99.90
52435;DHT22;38354;52.892;6.148;2023-11-21T06:18:52;10.00;99.90
52435;DHT22;38354;52.892;6.148;2023-11-21T06:21:18;9.90;99.90
52435;DHT22;38354;52.892;6.148;2023-11-21T06:23:43;9.90;99.90
52435;DHT22;38354;52.892;6.148;2023-11-21T06:26:09;9.90;99.90
52435;DHT22;38354;52.892;6.148;2023-11-21T06:28:35;9.90;99.90
52435;DHT22;38354;52.892;6.148;2023-11-21T06:31:04;9.90;99.90
52435;DHT22;38354;52.892;6.148;2023-11-21T06:33:31;9.90;99.90
52435;DHT22;38354;52.892;6.148;2023-11-21T06:35:57;9.90;99.90
52435;DHT22;38354;52.892;6.148;2023-11-21T06:38:23;9.90;99.90
52435;DHT22;38354;52.892;6.148;2023-11-21T06:40:48;9.90;99.90
52435;DHT22;38354;52.892;6.148;2023-11-21T06:43:14;9.90;99.90
52435;DHT22;38354;52.892;6.148;2023-11-21T06:45:41;9.90;99.90
52435;DHT22;38354;52.892;6.148;2023-11-21T06:48:06;9.90;99.90
52435;DHT22;38354;52.892;6.148;2023-11-21T06:50:32;9.90;99.90
52435;DHT22;38354;52.892;6.148;2023-11-21T06:52:58;9.90;99.90
52435;DHT22;38354;52.892;6.148;2023-11-21T06:55:23;9.90;99.90
52435;DHT22;38354;52.892;6.148;2023-11-21T06:57:49;9.90;99.90
52435;DHT22;38354;52.892;6.148;2023-11-21T07:00:18;9.90;99.90
52435;DHT22;38354;52.892;6.148;2023-11-21T07:02:44;9.90;99.90
52435;DHT22;38354;52.892;6.148;2023-11-21T07:05:10;9.90;99.90
52435;DHT22;38354;52.892;6.148;2023-11-21T07:07:36;9.90;99.90
52435;DHT22;38354;52.892;6.148;2023-11-21T07:10:03;9.90;99.90
52435;DHT22;38354;52.892;6.148;2023-11-21T07:12:30;9.80;99.90
52435;DHT22;38354;52.892;6.148;2023-11-21T07:14:57;9.90;99.90
52435;DHT22;38354;52.892;6.148;2023-11-21T07:17:23;9.80;99.90
52435;DHT22;38354;52.892;6.148;2023-11-21T07:19:49;9.90;99.90
52435;DHT22;38354;52.892;6.148;2023-11-21T07:22:15;9.90;99.90
52435;DHT22;38354;52.892;6.148;2023-11-21T07:24:48;9.90;99.90
52435;DHT22;38354;52.892;6.148;2023-11-21T07:27:17;9.80;99.90
52435;DHT22;38354;52.892;6.148;2023-11-21T07:29:44;9.80;99.90
52435;DHT22;38354;52.892;6.148;2023-11-21T07:32:09;9.80;99.90
52435;DHT22;38354;52.892;6.148;2023-11-21T07:34:36;9.90;99.90
52435;DHT22;38354;52.892;6.148;2023-11-21T07:37:02;9.80;99.90
52435;DHT22;38354;52.892;6.148;2023-11-21T07:39:28;9.80;99.90
52435;DHT22;38354;52.892;6.148;2023-11-21T07:41:54;9.80;99.90
52435;DHT22;38354;52.892;6.148;2023-11-21T07:44:19;9.80;99.90
52435;DHT22;38354;52.892;6.148;2023-11-21T07:46:45;9.80;99.90
52435;DHT22;38354;52.892;6.148;2023-11-21T07:49:12;9.80;99.90
52435;DHT22;38354;52.892;6.148;2023-11-21T07:51:41;9.80;99.90
52435;DHT22;38354;52.892;6.148;2023-11-21T07:54:07;9.80;99.90
52435;DHT22;38354;52.892;6.148;2023-11-21T07:56:32;9.80;99.90
52435;DHT22;38354;52.892;6.148;2023-11-21T07:58:58;9.90;99.90
52435;DHT22;38354;52.892;6.148;2023-11-21T08:01:24;9.90;99.90
52435;DHT22;38354;52.892;6.148;2023-11-21T08:03:50;9.90;99.90
52435;DHT22;38354;52.892;6.148;2023-11-21T08:06:17;9.90;99.90
52435;DHT22;38354;52.892;6.148;2023-11-21T08:08:43;9.90;99.90
52435;DHT22;38354;52.892;6.148;2023-11-21T08:11:09;9.90;99.90
52435;DHT22;38354;52.892;6.148;2023-11-21T08:13:35;9.90;99.90
52435;DHT22;38354;52.892;6.148;2023-11-21T08:16:01;9.90;99.90
52435;DHT22;38354;52.892;6.148;2023-11-21T08:18:30;9.90;99.90
52435;DHT22;38354;52.892;6.148;2023-11-21T08:20:56;9.90;99.90
52435;DHT22;38354;52.892;6.148;2023-11-21T08:23:22;9.90;99.90
52435;DHT22;38354;52.892;6.148;2023-11-21T08:25:52;9.90;99.90
52435;DHT22;38354;52.892;6.148;2023-11-21T08:28:18;9.90;99.90
52435;DHT22;38354;52.892;6.148;2023-11-21T08:30:44;9.90;99.90
52435;DHT22;38354;52.892;6.148;2023-11-21T08:33:10;9.90;99.90
52435;DHT22;38354;52.892;6.148;2023-11-21T08:35:37;9.90;99.90
52435;DHT22;38354;52.892;6.148;2023-11-21T08:38:03;9.90;99.90
52435;DHT22;38354;52.892;6.148;2023-11-21T08:40:29;9.80;99.90
52435;DHT22;38354;52.892;6.148;2023-11-21T08:42:55;9.80;99.90
52435;DHT22;38354;52.892;6.148;2023-11-21T08:45:21;9.90;99.90
52435;DHT22;38354;52.892;6.148;2023-11-21T08:47:47;9.80;99.90
52435;DHT22;38354;52.892;6.148;2023-11-21T08:50:13;9.80;99.90
52435;DHT22;38354;52.892;6.148;2023-11-21T08:52:40;9.80;99.90
52435;DHT22;38354;52.892;6.148;2023-11-21T08:55:06;9.80;99.90
52435;DHT22;38354;52.892;6.148;2023-11-21T08:57:38;9.80;99.90
52435;DHT22;38354;52.892;6.148;2023-11-21T09:00:05;9.80;99.90
52435;DHT22;38354;52.892;6.148;2023-11-21T09:02:38;9.80;99.90
52435;DHT22;38354;52.892;6.148;2023-11-21T09:05:07;9.80;99.90
52435;DHT22;38354;52.892;6.148;2023-11-21T09:07:35;9.80;99.90
52435;DHT22;38354;52.892;6.148;2023-11-21T09:10:01;9.80;99.90
52435;DHT22;38354;52.892;6.148;2023-11-21T09:12:27;9.80;99.90
52435;DHT22;38354;52.892;6.148;2023-11-21T09:14:53;9.70;99.90
52435;DHT22;38354;52.892;6.148;2023-11-21T09:17:18;9.70;99.90
52435;DHT22;38354;52.892;6.148;2023-11-21T09:19:45;9.80;99.90
52435;DHT22;38354;52.892;6.148;2023-11-21T09:22:15;9.80;99.90
52435;DHT22;38354;52.892;6.148;2023-11-21T09:24:41;9.80;99.90
52435;DHT22;38354;52.892;6.148;2023-11-21T09:27:08;9.70;99.90
52435;DHT22;38354;52.892;6.148;2023-11-21T09:29:33;9.80;99.90
52435;DHT22;38354;52.892;6.148;2023-11-21T09:31:59;9.70;99.90
52435;DHT22;38354;52.892;6.148;2023-11-21T09:34:25;9.70;99.90
52435;DHT22;38354;52.892;6.148;2023-11-21T09:36:51;9.80;99.90
52435;DHT22;38354;52.892;6.148;2023-11-21T09:39:17;9.80;99.90
52435;DHT22;38354;52.892;6.148;2023-11-21T09:41:51;9.80;99.90
52435;DHT22;38354;52.892;6.148;2023-11-21T09:44:26;9.80;99.90
52435;DHT22;38354;52.892;6.148;2023-11-21T09:46:55;9.80;99.90
52435;DHT22;38354;52.892;6.148;2023-11-21T09:49:26;9.80;99.90
52435;DHT22;38354;52.892;6.148;2023-11-21T09:51:55;9.80;99.90
52435;DHT22;38354;52.892;6.148;2023-11-21T09:54:21;9.80;99.90
52435;DHT22;38354;52.892;6.148;2023-11-21T09:56:47;9.80;99.90
52435;DHT22;38354;52.892;6.148;2023-11-21T09:59:14;9.80;99.90
52435;DHT22;38354;52.892;6.148;2023-11-21T10:01:41;9.80;99.90
52435;DHT22;38354;52.892;6.148;2023-11-21T10:04:08;9.80;99.90
52435;DHT22;38354;52.892;6.148;2023-11-21T10:06:40;9.90;99.90
52435;DHT22;38354;52.892;6.148;2023-11-21T10:09:12;9.90;99.90
52435;DHT22;38354;52.892;6.148;2023-11-21T10:11:42;9.90;99.90
52435;DHT22;38354;52.892;6.148;2023-11-21T10:14:12;10.00;99.90
52435;DHT22;38354;52.892;6.148;2023-11-21T10:16:40;10.00;99.90
52435;DHT22;38354;52.892;6.148;2023-11-21T10:19:10;10.00;99.90
52435;DHT22;38354;52.892;6.148;2023-11-21T10:21:38;10.00;99.90
52435;DHT22;38354;52.892;6.148;2023-11-21T10:24:04;10.00;99.90
52435;DHT22;38354;52.892;6.148;2023-11-21T10:26:32;9.90;99.90
52435;DHT22;38354;52.892;6.148;2023-11-21T10:28:59;9.90;99.90
52435;DHT22;38354;52.892;6.148;2023-11-21T10:31:28;9.90;99.90
52435;DHT22;38354;52.892;6.148;2023-11-21T10:33:53;9.80;99.90
52435;DHT22;38354;52.892;6.148;2023-11-21T10:36:26;9.90;99.90
52435;DHT22;38354;52.892;6.148;2023-11-21T10:38:53;9.90;99.90
52435;DHT22;38354;52.892;6.148;2023-11-21T10:41:19;10.00;99.90
52435;DHT22;38354;52.892;6.148;2023-11-21T10:43:45;10.00;99.90
52435;DHT22;38354;52.892;6.148;2023-11-21T10:46:11;10.00;99.90
52435;DHT22;38354;52.892;6.148;2023-11-21T10:48:37;9.90;99.90
52435;DHT22;38354;52.892;6.148;2023-11-21T10:51:07;9.90;99.90
52435;DHT22;38354;52.892;6.148;2023-11-21T10:53:33;9.90;99.90
52435;DHT22;38354;52.892;6.148;2023-11-21T10:56:05;9.90;99.90
52435;DHT22;38354;52.892;6.148;2023-11-21T10:58:33;9.90;99.90
52435;DHT22;38354;52.892;6.148;2023-11-21T11:01:00;9.80;99.90
52435;DHT22;38354;52.892;6.148;2023-11-21T11:03:26;9.80;99.90
52435;DHT22;38354;52.892;6.148;2023-11-21T11:05:53;9.90;99.90
52435;DHT22;38354;52.892;6.148;2023-11-21T11:08:21;9.80;99.90
52435;DHT22;38354;52.892;6.148;2023-11-21T11:10:52;9.80;99.90
52435;DHT22;38354;52.892;6.148;2023-11-21T11:13:18;9.80;99.90
52435;DHT22;38354;52.892;6.148;2023-11-21T11:15:47;9.80;99.90
52435;DHT22;38354;52.892;6.148;2023-11-21T11:18:13;9.90;99.90
52435;DHT22;38354;52.892;6.148;2023-11-21T11:20:40;9.90;99.90
52435;DHT22;38354;52.892;6.148;2023-11-21T11:28:43;9.90;99.90
52435;DHT22;38354;52.892;6.148;2023-11-21T11:31:46;9.90;99.90
52435;DHT22;38354;52.892;6.148;2023-11-21T11:34:30;9.90;99.90
52435;DHT22;38354;52.892;6.148;2023-11-21T11:37:08;9.80;99.90
52435;DHT22;38354;52.892;6.148;2023-11-21T11:39:38;9.80;99.90
52435;DHT22;38354;52.892;6.148;2023-11-21T11:42:16;9.80;99.90
52435;DHT22;38354;52.892;6.148;2023-11-21T11:47:32;9.70;99.90
52435;DHT22;38354;52.892;6.148;2023-11-21T11:50:09;9.70;99.90
52435;DHT22;38354;52.892;6.148;2023-11-21T11:52:51;9.70;99.90
52435;DHT22;38354;52.892;6.148;2023-11-21T11:55:20;9.70;99.90
52435;DHT22;38354;52.892;6.148;2023-11-21T11:57:51;9.60;99.90
52435;DHT22;38354;52.892;6.148;2023-11-21T12:00:21;9.70;99.90
52435;DHT22;38354;52.892;6.148;2023-11-21T12:02:54;9.70;99.90
52435;DHT22;38354;52.892;6.148;2023-11-21T12:05:21;9.80;99.90
52435;DHT22;38354;52.892;6.148;2023-11-21T12:07:53;9.90;99.90
52435;DHT22;38354;52.892;6.148;2023-11-21T12:10:30;10.00;99.90
52435;DHT22;38354;52.892;6.148;2023-11-21T12:12:57;10.00;99.90
52435;DHT22;38354;52.892;6.148;2023-11-21T12:15:24;10.00;99.90
52435;DHT22;38354;52.892;6.148;2023-11-21T12:17:51;10.00;99.90
52435;DHT22;38354;52.892;6.148;2023-11-21T12:20:22;10.00;99.90
52435;DHT22;38354;52.892;6.148;2023-11-21T12:22:49;10.30;99.90
52435;DHT22;38354;52.892;6.148;2023-11-21T12:25:20;10.60;99.90
52435;DHT22;38354;52.892;6.148;2023-11-21T12:27:48;10.60;99.90
52435;DHT22;38354;52.892;6.148;2023-11-21T12:30:19;10.60;99.90
52435;DHT22;38354;52.892;6.148;2023-11-21T12:32:47;10.60;99.90
52435;DHT22;38354;52.892;6.148;2023-11-21T12:35:14;10.50;99.90
52435;DHT22;38354;52.892;6.148;2023-11-21T12:37:41;10.60;99.90
52435;DHT22;38354;52.892;6.148;2023-11-21T12:40:09;10.90;99.90
52435;DHT22;38354;52.892;6.148;2023-11-21T12:42:45;10.90;99.90
52435;DHT22;38354;52.892;6.148;2023-11-21T12:47:44;11.00;99.90
52435;DHT22;38354;52.892;6.148;2023-11-21T12:50:13;11.00;99.90
52435;DHT22;38354;52.892;6.148;2023-11-21T12:52:44;10.90;99.90
52435;DHT22;38354;52.892;6.148;2023-11-21T12:55:17;10.80;99.90
52435;DHT22;38354;52.892;6.148;2023-11-21T12:57:44;10.60;99.90
52435;DHT22;38354;52.892;6.148;2023-11-21T13:00:13;10.50;99.90
52435;DHT22;38354;52.892;6.148;2023-11-21T13:02:53;10.40;99.90
